Morgenstond III — PBAX — position and weather

sailwx.info

Track history (hours):
 
Tides and Currents Weather Stations Pressure Air Temp Water Temp Dewpoint Dewpoint Depression Visibility Wind Speed Wind Dir Waves Ship Positions

Morgenstond III

Last reported at 2018-Jan-21 19:59 UTC. Time now 2018-Jan-21 20:28 UTC.
Position N 53°06' E 008°44'.

Length 110 m; draft 6.1 m.

Type: Cargo ship. MMSI: 244562000.

Date/timePositionNaut miles runAvg speedWind from/ knotsBaromVisibWave heightAir tempDewpointWater temp
2018-Jan-21 19:59N 53°06' E 008°44'0 0.0
2018-Jan-21 19:29N 53°06' E 008°44'0 0.0
2018-Jan-21 18:59N 53°06' E 008°44'0 0.0
2018-Jan-21 18:29N 53°06' E 008°44'0 0.0
2018-Jan-21 17:59N 53°06' E 008°44'0 0.0
2018-Jan-21 17:29N 53°06' E 008°44'0 0.0
2018-Jan-21 16:59N 53°06' E 008°44'0 0.0
2018-Jan-21 16:29N 53°06' E 008°44'0 0.0
2018-Jan-21 15:59N 53°06' E 008°44'0 0.0
2018-Jan-21 15:29N 53°06' E 008°44'0 0.0
2018-Jan-21 14:59N 53°06' E 008°44'0 0.0
2018-Jan-21 14:29N 53°06' E 008°44'0 0.0
2018-Jan-21 13:59N 53°06' E 008°44'0 0.0
2018-Jan-21 13:29N 53°06' E 008°44'0 0.0
2018-Jan-21 12:59N 53°06' E 008°44'0 0.0
2018-Jan-21 12:29N 53°06' E 008°44'0 0.0
2018-Jan-21 11:59N 53°06' E 008°44'0 0.0
2018-Jan-21 11:29N 53°06' E 008°44'0 0.0
2018-Jan-21 10:59N 53°06' E 008°44'0 0.0
2018-Jan-21 10:29N 53°06' E 008°44'0 0.0
2018-Jan-21 09:59N 53°06' E 008°44'0 0.0
2018-Jan-21 09:29N 53°06' E 008°44'0 0.0
2018-Jan-21 08:59N 53°06' E 008°44'0 0.0
2018-Jan-21 08:29N 53°06' E 008°44'0 0.0
2018-Jan-21 07:59N 53°06' E 008°44'0 0.0
2018-Jan-21 07:29N 53°06' E 008°44'0 0.0
2018-Jan-21 06:59N 53°06' E 008°44'0 0.0
2018-Jan-21 06:29N 53°06' E 008°44'0 0.0
2018-Jan-21 05:59N 53°06' E 008°44'0 0.0
2018-Jan-21 05:29N 53°06' E 008°44'0 0.0
2018-Jan-21 04:59N 53°06' E 008°44'0 0.0
2018-Jan-21 04:29N 53°06' E 008°44'0 0.0
2018-Jan-21 03:59N 53°06' E 008°44'0 0.0
2018-Jan-21 03:29N 53°06' E 008°44'0 0.0
2018-Jan-21 02:59N 53°06' E 008°44'0 0.0
2018-Jan-21 02:29N 53°06' E 008°44'0 0.0
2018-Jan-21 01:59N 53°06' E 008°44'0 0.0
2018-Jan-21 01:29N 53°06' E 008°44'0 0.0
2018-Jan-21 00:59N 53°06' E 008°44'0 0.0
2018-Jan-21 00:29N 53°06' E 008°44'0 0.0
2018-Jan-20 23:58N 53°06' E 008°44'0 0.0
2018-Jan-20 23:29N 53°06' E 008°44'0 0.0
2018-Jan-20 22:59N 53°06' E 008°44'0 0.0
2018-Jan-20 22:29N 53°06' E 008°44'0 0.0
2018-Jan-20 21:58N 53°06' E 008°44'0 0.0
2018-Jan-20 21:29N 53°06' E 008°44'0 0.0
2018-Jan-20 20:58N 53°06' E 008°44'0 0.0
2018-Jan-20 20:29N 53°06' E 008°44'0 0.0
2018-Jan-20 19:59N 53°06' E 008°44'0 0.0
2018-Jan-20 19:29N 53°06' E 008°44'0 0.0
2018-Jan-20 18:59N 53°06' E 008°44'0 0.0
2018-Jan-20 18:29N 53°06' E 008°44'0 0.0
2018-Jan-20 17:59N 53°06' E 008°44'0 0.0
2018-Jan-20 17:29N 53°06' E 008°44'0 0.0
2018-Jan-20 16:59N 53°06' E 008°44'0 0.0
2018-Jan-20 16:29N 53°06' E 008°44'0 0.0
2018-Jan-20 15:59N 53°06' E 008°44'0 0.0
2018-Jan-20 15:29N 53°06' E 008°44'0 0.0
2018-Jan-20 14:59N 53°06' E 008°44'0 0.0
2018-Jan-20 14:29N 53°06' E 008°44'0 0.0
2018-Jan-20 13:59N 53°06' E 008°44'0 0.0
2018-Jan-20 13:29N 53°06' E 008°44'0 0.0
2018-Jan-20 12:59N 53°06' E 008°44'0 0.0
2018-Jan-20 12:29N 53°06' E 008°44'0 0.1
2018-Jan-20 12:00N 53°06' E 008°44'2 4.0
2018-Jan-20 11:31N 53°07' E 008°42'5 9.2
2018-Jan-20 11:01N 53°10' E 008°36'5 9.6
2018-Jan-20 10:30N 53°13' E 008°30'5 9.3
2018-Jan-20 10:00N 53°18' E 008°29'5 9.5
2018-Jan-20 09:30N 53°23' E 008°30'5 9.5
2018-Jan-20 09:00N 53°27' E 008°29'4 8.2
2018-Jan-20 08:31N 53°31' E 008°32'3 6.7
2018-Jan-20 08:00N 53°34' E 008°32'4 8.6
2018-Jan-20 07:31N 53°38' E 008°27'4 8.8
2018-Jan-20 07:00N 53°41' E 008°22'4 8.8
2018-Jan-20 06:30N 53°43' E 008°16'4 8.4
2018-Jan-20 06:00N 53°46' E 008°10'4 8.0
2018-Jan-20 05:30N 53°49' E 008°06'5 9.5
2018-Jan-20 05:00N 53°51' E 007°59'4 6.2
2018-Jan-20 04:19N 53°54' E 007°53'310.4
2018-Jan-20 04:00N 53°56' E 007°57'510.4
2018-Jan-20 03:29N 53°59' E 008°04'510.4
2018-Jan-20 02:59N 54°00' E 008°12'510.0
2018-Jan-20 02:30N 53°60' E 008°20'611.3
2018-Jan-20 02:00N 53°58' E 008°30'510.4
2018-Jan-20 01:30N 53°57' E 008°38'5 9.4
2018-Jan-20 01:00N 53°53' E 008°43'4 8.6
2018-Jan-20 00:30N 53°50' E 008°48'4 8.4
2018-Jan-20 00:00N 53°51' E 008°56'4 8.5
2018-Jan-19 23:30N 53°52' E 009°02'4 8.2
2018-Jan-19 23:00N 53°54' E 009°09'0 0.0
2018-Jan-19 22:30N 53°54' E 009°09'1 1.1
2018-Jan-19 22:00N 53°54' E 009°09'0 0.1
2018-Jan-19 21:30N 53°54' E 009°09'0 0.0
2018-Jan-19 21:00N 53°54' E 009°09'1 1.8
2018-Jan-19 20:30N 53°55' E 009°11'4 7.8
2018-Jan-19 20:00N 53°58' E 009°15'4 8.2
2018-Jan-19 19:30N 54°01' E 009°18'4 7.1
2018-Jan-19 19:00N 54°05' E 009°19'4 8.2
2018-Jan-19 18:30N 54°09' E 009°21'4 7.5
2018-Jan-19 18:00N 54°10' E 009°27'4 8.4
2018-Jan-19 17:30N 54°12' E 009°33'4 7.3
2018-Jan-19 17:00N 54°15' E 009°37'3 6.1
2018-Jan-19 16:30N 54°17' E 009°40'3 6.4
2018-Jan-19 16:01N 54°20' E 009°44'4 7.7
2018-Jan-19 15:30N 54°22' E 009°49'32 7.0
2018-Jan-19 10:57N 54°36' E 010°39'510.6
2018-Jan-19 10:31N 54°36' E 010°47'510.7
2018-Jan-19 10:00N 54°36' E 010°56'510.0
2018-Jan-19 09:31N 54°36' E 011°04'5 9.7
2018-Jan-19 09:01N 54°36' E 011°13'510.2
2018-Jan-19 08:31N 54°34' E 011°21'510.1
2018-Jan-19 08:00N 54°32' E 011°29'510.1
2018-Jan-19 07:30N 54°30' E 011°37'1210.1
2018-Jan-19 06:16N 54°27' E 011°58'310.2
2018-Jan-19 06:00N 54°26' E 012°02'5 9.9
2018-Jan-19 05:30N 54°28' E 012°10'8710.3
2018-Jan-18 21:05N 55°15' E 014°18'310.8
2018-Jan-18 20:48N 55°17' E 014°21'310.8
2018-Jan-18 20:31N 55°20' E 014°25'610.8
2018-Jan-18 20:00N 55°24' E 014°31'510.7
2018-Jan-18 19:29N 55°27' E 014°39'511.0
2018-Jan-18 19:00N 55°30' E 014°47'811.1
2018-Jan-18 18:20N 55°34' E 014°58'411.0
2018-Jan-18 18:00N 55°36' E 015°04'610.9
2018-Jan-18 17:26N 55°39' E 015°13'510.9
2018-Jan-18 17:01N 55°41' E 015°20'510.9
2018-Jan-18 16:30N 55°44' E 015°28'510.9
2018-Jan-18 16:00N 55°47' E 015°37'510.9
2018-Jan-18 15:30N 55°49' E 015°45'510.9
2018-Jan-18 15:01N 55°52' E 015°54'510.8
2018-Jan-18 14:30N 55°55' E 016°02'510.8
2018-Jan-18 14:01N 55°58' E 016°10'510.9
2018-Jan-18 13:30N 56°00' E 016°19'510.8
2018-Jan-18 13:01N 56°03' E 016°27'611.0
2018-Jan-18 12:31N 56°06' E 016°36'610.6
2018-Jan-18 11:58N 56°09' E 016°43'511.0
2018-Jan-18 11:31N 56°14' E 016°47'  
2018-Jan-12 14:59N 61°08' E 021°28'0 0.0
2018-Jan-12 14:31N 61°08' E 021°28'0 0.0
2018-Jan-12 14:00N 61°08' E 021°28'0 0.0
2018-Jan-12 13:30N 61°08' E 021°28'0 0.0
2018-Jan-12 13:01N 61°08' E 021°28'0 0.0
2018-Jan-12 12:31N 61°08' E 021°28'0 0.0
2018-Jan-12 12:00N 61°08' E 021°28'0 0.0
2018-Jan-12 11:30N 61°08' E 021°28'0 0.0
2018-Jan-12 11:00N 61°08' E 021°28'0 0.0
2018-Jan-12 10:30N 61°08' E 021°28'0 0.0
2018-Jan-12 10:00N 61°08' E 021°28'0 0.0
2018-Jan-12 09:30N 61°08' E 021°28'0 0.0
2018-Jan-12 09:00N 61°08' E 021°28'0 0.0
2018-Jan-12 08:28N 61°08' E 021°28'0 0.0
2018-Jan-12 08:00N 61°08' E 021°28'0 0.0
2018-Jan-12 07:30N 61°08' E 021°28'0 0.0
2018-Jan-12 07:00N 61°08' E 021°28'0 0.0
2018-Jan-12 06:30N 61°08' E 021°28'0 0.0
2018-Jan-12 06:01N 61°08' E 021°28'0 0.0
2018-Jan-12 05:30N 61°08' E 021°28'0 0.0
2018-Jan-12 05:00N 61°08' E 021°28'0 0.0
2018-Jan-12 04:30N 61°08' E 021°28'0 0.0
2018-Jan-12 04:00N 61°08' E 021°28'0 0.0
2018-Jan-12 03:30N 61°08' E 021°28'0 0.0
2018-Jan-12 03:00N 61°08' E 021°28'0 0.0
2018-Jan-12 02:30N 61°08' E 021°28'0 0.0
2018-Jan-12 02:00N 61°08' E 021°28'0 0.0
2018-Jan-12 01:30N 61°08' E 021°28'0 0.0
2018-Jan-12 01:00N 61°08' E 021°28'0 0.0
2018-Jan-12 00:30N 61°08' E 021°28'0 0.0
2018-Jan-12 00:00N 61°08' E 021°28'0 0.0
2018-Jan-11 23:31N 61°08' E 021°28'0 0.0
2018-Jan-11 23:00N 61°08' E 021°28'0 0.0
2018-Jan-11 22:31N 61°08' E 021°28'0 0.0
2018-Jan-11 22:00N 61°08' E 021°28'0 0.0
2018-Jan-11 21:27N 61°08' E 021°28'0 0.0
2018-Jan-11 21:00N 61°08' E 021°28'0 0.0
2018-Jan-11 20:30N 61°08' E 021°28'0 0.0
2018-Jan-11 19:59N 61°08' E 021°28'  
Track history (hours):
 
Tides and Currents Weather Stations Pressure Air Temp Water Temp Dewpoint Dewpoint Depression Visibility Wind Speed Wind Dir Waves Ship Positions

Morgenstond III

Last reported at 2018-Jan-21 19:59 UTC. Time now 2018-Jan-21 20:28 UTC.
Position N 53°06' E 008°44'.

Length 110 m; draft 6.1 m.

Type: Cargo ship. MMSI: 244562000.

Date/timePositionNaut miles runAvg speedWind from/ knotsBaromVisibWave heightAir tempDewpointWater temp
2018-Jan-21 19:59N 53°06' E 008°44'0 0.0
2018-Jan-21 19:29N 53°06' E 008°44'0 0.0
2018-Jan-21 18:59N 53°06' E 008°44'0 0.0
2018-Jan-21 18:29N 53°06' E 008°44'0 0.0
2018-Jan-21 17:59N 53°06' E 008°44'0 0.0
2018-Jan-21 17:29N 53°06' E 008°44'0 0.0
2018-Jan-21 16:59N 53°06' E 008°44'0 0.0
2018-Jan-21 16:29N 53°06' E 008°44'0 0.0
2018-Jan-21 15:59N 53°06' E 008°44'0 0.0
2018-Jan-21 15:29N 53°06' E 008°44'0 0.0
2018-Jan-21 14:59N 53°06' E 008°44'0 0.0
2018-Jan-21 14:29N 53°06' E 008°44'0 0.0
2018-Jan-21 13:59N 53°06' E 008°44'0 0.0
2018-Jan-21 13:29N 53°06' E 008°44'0 0.0
2018-Jan-21 12:59N 53°06' E 008°44'0 0.0
2018-Jan-21 12:29N 53°06' E 008°44'0 0.0
2018-Jan-21 11:59N 53°06' E 008°44'0 0.0
2018-Jan-21 11:29N 53°06' E 008°44'0 0.0
2018-Jan-21 10:59N 53°06' E 008°44'0 0.0
2018-Jan-21 10:29N 53°06' E 008°44'0 0.0
2018-Jan-21 09:59N 53°06' E 008°44'0 0.0
2018-Jan-21 09:29N 53°06' E 008°44'0 0.0
2018-Jan-21 08:59N 53°06' E 008°44'0 0.0
2018-Jan-21 08:29N 53°06' E 008°44'0 0.0
2018-Jan-21 07:59N 53°06' E 008°44'0 0.0
2018-Jan-21 07:29N 53°06' E 008°44'0 0.0
2018-Jan-21 06:59N 53°06' E 008°44'0 0.0
2018-Jan-21 06:29N 53°06' E 008°44'0 0.0
2018-Jan-21 05:59N 53°06' E 008°44'0 0.0
2018-Jan-21 05:29N 53°06' E 008°44'0 0.0
2018-Jan-21 04:59N 53°06' E 008°44'0 0.0
2018-Jan-21 04:29N 53°06' E 008°44'0 0.0
2018-Jan-21 03:59N 53°06' E 008°44'0 0.0
2018-Jan-21 03:29N 53°06' E 008°44'0 0.0
2018-Jan-21 02:59N 53°06' E 008°44'0 0.0
2018-Jan-21 02:29N 53°06' E 008°44'0 0.0
2018-Jan-21 01:59N 53°06' E 008°44'0 0.0
2018-Jan-21 01:29N 53°06' E 008°44'0 0.0
2018-Jan-21 00:59N 53°06' E 008°44'0 0.0
2018-Jan-21 00:29N 53°06' E 008°44'0 0.0
2018-Jan-20 23:58N 53°06' E 008°44'0 0.0
2018-Jan-20 23:29N 53°06' E 008°44'0 0.0
2018-Jan-20 22:59N 53°06' E 008°44'0 0.0
2018-Jan-20 22:29N 53°06' E 008°44'0 0.0
2018-Jan-20 21:58N 53°06' E 008°44'0 0.0
2018-Jan-20 21:29N 53°06' E 008°44'0 0.0
2018-Jan-20 20:58N 53°06' E 008°44'0 0.0
2018-Jan-20 20:29N 53°06' E 008°44'0 0.0
2018-Jan-20 19:59N 53°06' E 008°44'0 0.0
2018-Jan-20 19:29N 53°06' E 008°44'0 0.0
2018-Jan-20 18:59N 53°06' E 008°44'0 0.0
2018-Jan-20 18:29N 53°06' E 008°44'0 0.0
2018-Jan-20 17:59N 53°06' E 008°44'0 0.0
2018-Jan-20 17:29N 53°06' E 008°44'0 0.0
2018-Jan-20 16:59N 53°06' E 008°44'0 0.0
2018-Jan-20 16:29N 53°06' E 008°44'0 0.0
2018-Jan-20 15:59N 53°06' E 008°44'0 0.0
2018-Jan-20 15:29N 53°06' E 008°44'0 0.0
2018-Jan-20 14:59N 53°06' E 008°44'0 0.0
2018-Jan-20 14:29N 53°06' E 008°44'0 0.0
2018-Jan-20 13:59N 53°06' E 008°44'0 0.0
2018-Jan-20 13:29N 53°06' E 008°44'0 0.0
2018-Jan-20 12:59N 53°06' E 008°44'0 0.0
2018-Jan-20 12:29N 53°06' E 008°44'0 0.1
2018-Jan-20 12:00N 53°06' E 008°44'2 4.0
2018-Jan-20 11:31N 53°07' E 008°42'5 9.2
2018-Jan-20 11:01N 53°10' E 008°36'5 9.6
2018-Jan-20 10:30N 53°13' E 008°30'5 9.3
2018-Jan-20 10:00N 53°18' E 008°29'5 9.5
2018-Jan-20 09:30N 53°23' E 008°30'5 9.5
2018-Jan-20 09:00N 53°27' E 008°29'4 8.2
2018-Jan-20 08:31N 53°31' E 008°32'3 6.7
2018-Jan-20 08:00N 53°34' E 008°32'4 8.6
2018-Jan-20 07:31N 53°38' E 008°27'4 8.8
2018-Jan-20 07:00N 53°41' E 008°22'4 8.8
2018-Jan-20 06:30N 53°43' E 008°16'4 8.4
2018-Jan-20 06:00N 53°46' E 008°10'4 8.0
2018-Jan-20 05:30N 53°49' E 008°06'5 9.5
2018-Jan-20 05:00N 53°51' E 007°59'4 6.2
2018-Jan-20 04:19N 53°54' E 007°53'310.4
2018-Jan-20 04:00N 53°56' E 007°57'510.4
2018-Jan-20 03:29N 53°59' E 008°04'510.4
2018-Jan-20 02:59N 54°00' E 008°12'510.0
2018-Jan-20 02:30N 53°60' E 008°20'611.3
2018-Jan-20 02:00N 53°58' E 008°30'510.4
2018-Jan-20 01:30N 53°57' E 008°38'5 9.4
2018-Jan-20 01:00N 53°53' E 008°43'4 8.6
2018-Jan-20 00:30N 53°50' E 008°48'4 8.4
2018-Jan-20 00:00N 53°51' E 008°56'4 8.5
2018-Jan-19 23:30N 53°52' E 009°02'4 8.2
2018-Jan-19 23:00N 53°54' E 009°09'0 0.0
2018-Jan-19 22:30N 53°54' E 009°09'1 1.1
2018-Jan-19 22:00N 53°54' E 009°09'0 0.1
2018-Jan-19 21:30N 53°54' E 009°09'0 0.0
2018-Jan-19 21:00N 53°54' E 009°09'1 1.8
2018-Jan-19 20:30N 53°55' E 009°11'4 7.8
2018-Jan-19 20:00N 53°58' E 009°15'4 8.2
2018-Jan-19 19:30N 54°01' E 009°18'4 7.1
2018-Jan-19 19:00N 54°05' E 009°19'4 8.2
2018-Jan-19 18:30N 54°09' E 009°21'4 7.5
2018-Jan-19 18:00N 54°10' E 009°27'4 8.4
2018-Jan-19 17:30N 54°12' E 009°33'4 7.3
2018-Jan-19 17:00N 54°15' E 009°37'3 6.1
2018-Jan-19 16:30N 54°17' E 009°40'3 6.4
2018-Jan-19 16:01N 54°20' E 009°44'4 7.7
2018-Jan-19 15:30N 54°22' E 009°49'32 7.0
2018-Jan-19 10:57N 54°36' E 010°39'510.6
2018-Jan-19 10:31N 54°36' E 010°47'510.7
2018-Jan-19 10:00N 54°36' E 010°56'510.0
2018-Jan-19 09:31N 54°36' E 011°04'5 9.7
2018-Jan-19 09:01N 54°36' E 011°13'510.2
2018-Jan-19 08:31N 54°34' E 011°21'510.1
2018-Jan-19 08:00N 54°32' E 011°29'510.1
2018-Jan-19 07:30N 54°30' E 011°37'1210.1
2018-Jan-19 06:16N 54°27' E 011°58'310.2
2018-Jan-19 06:00N 54°26' E 012°02'5 9.9
2018-Jan-19 05:30N 54°28' E 012°10'8710.3
2018-Jan-18 21:05N 55°15' E 014°18'310.8
2018-Jan-18 20:48N 55°17' E 014°21'310.8
2018-Jan-18 20:31N 55°20' E 014°25'610.8
2018-Jan-18 20:00N 55°24' E 014°31'510.7
2018-Jan-18 19:29N 55°27' E 014°39'511.0
2018-Jan-18 19:00N 55°30' E 014°47'811.1
2018-Jan-18 18:20N 55°34' E 014°58'411.0
2018-Jan-18 18:00N 55°36' E 015°04'610.9
2018-Jan-18 17:26N 55°39' E 015°13'510.9
2018-Jan-18 17:01N 55°41' E 015°20'510.9
2018-Jan-18 16:30N 55°44' E 015°28'510.9
2018-Jan-18 16:00N 55°47' E 015°37'510.9
2018-Jan-18 15:30N 55°49' E 015°45'510.9
2018-Jan-18 15:01N 55°52' E 015°54'510.8
2018-Jan-18 14:30N 55°55' E 016°02'510.8
2018-Jan-18 14:01N 55°58' E 016°10'510.9
2018-Jan-18 13:30N 56°00' E 016°19'510.8
2018-Jan-18 13:01N 56°03' E 016°27'611.0
2018-Jan-18 12:31N 56°06' E 016°36'610.6
2018-Jan-18 11:58N 56°09' E 016°43'511.0
2018-Jan-18 11:31N 56°14' E 016°47'  
2018-Jan-12 14:59N 61°08' E 021°28'0 0.0
2018-Jan-12 14:31N 61°08' E 021°28'0 0.0
2018-Jan-12 14:00N 61°08' E 021°28'0 0.0
2018-Jan-12 13:30N 61°08' E 021°28'0 0.0
2018-Jan-12 13:01N 61°08' E 021°28'0 0.0
2018-Jan-12 12:31N 61°08' E 021°28'0 0.0
2018-Jan-12 12:00N 61°08' E 021°28'0 0.0
2018-Jan-12 11:30N 61°08' E 021°28'0 0.0
2018-Jan-12 11:00N 61°08' E 021°28'0 0.0
2018-Jan-12 10:30N 61°08' E 021°28'0 0.0
2018-Jan-12 10:00N 61°08' E 021°28'0 0.0
2018-Jan-12 09:30N 61°08' E 021°28'0 0.0
2018-Jan-12 09:00N 61°08' E 021°28'0 0.0
2018-Jan-12 08:28N 61°08' E 021°28'0 0.0
2018-Jan-12 08:00N 61°08' E 021°28'0 0.0
2018-Jan-12 07:30N 61°08' E 021°28'0 0.0
2018-Jan-12 07:00N 61°08' E 021°28'0 0.0
2018-Jan-12 06:30N 61°08' E 021°28'0 0.0
2018-Jan-12 06:01N 61°08' E 021°28'0 0.0
2018-Jan-12 05:30N 61°08' E 021°28'0 0.0
2018-Jan-12 05:00N 61°08' E 021°28'0 0.0
2018-Jan-12 04:30N 61°08' E 021°28'0 0.0
2018-Jan-12 04:00N 61°08' E 021°28'0 0.0
2018-Jan-12 03:30N 61°08' E 021°28'0 0.0
2018-Jan-12 03:00N 61°08' E 021°28'0 0.0
2018-Jan-12 02:30N 61°08' E 021°28'0 0.0
2018-Jan-12 02:00N 61°08' E 021°28'0 0.0
2018-Jan-12 01:30N 61°08' E 021°28'0 0.0
2018-Jan-12 01:00N 61°08' E 021°28'0 0.0
2018-Jan-12 00:30N 61°08' E 021°28'0 0.0
2018-Jan-12 00:00N 61°08' E 021°28'0 0.0
2018-Jan-11 23:31N 61°08' E 021°28'0 0.0
2018-Jan-11 23:00N 61°08' E 021°28'0 0.0
2018-Jan-11 22:31N 61°08' E 021°28'0 0.0
2018-Jan-11 22:00N 61°08' E 021°28'0 0.0
2018-Jan-11 21:27N 61°08' E 021°28'0 0.0
2018-Jan-11 21:00N 61°08' E 021°28'0 0.0
2018-Jan-11 20:30N 61°08' E 021°28'0 0.0
2018-Jan-11 19:59N 61°08' E 021°28'  

Dump ship's entire track history